Terminal Aerodrome Forecast
Issued by NWS

Home | Current Version | Previous Version | Graphics & Text | Print | Product List | Glossary On
Versions: 1 2 3 4 5 6 7 8 9 10 11 12
197
FTUS43 KIWX 171120
TAFSBN
TAF
KSBN 171120Z 1712/1812 25006KT 4SM -SHSN BKN025 OVC040
      TEMPO 1712/1713 2SM -SHSN BR
     FM171400 26008KT P6SM SCT025 BKN050
     FM171800 23014KT P6SM SCT150=

USA.gov is the U.S. government's official web portal to all federal, state and local government web resources and services.